Time;durP1;ratioP1;P1;durP2;ratioP2;P2;SDS_P1;SDS_P2;PMS_P1;PMS_P2;Temp;Humidity;BMP_temperature;BMP_pressure;BME280_temperature;BME280_humidity;BME280_pressure;Samples;Min_cycle;Max_cycle;Signal;HPM_P1;HPM_P2
2022/07/11 00:01:52;;;;;;;4.00;2.00;;;19.80;67.70;;;;;;5087246;28;20488;-80
2022/07/11 00:04:21;;;;;;;4.10;2.13;;;19.80;67.80;;;;;;5084162;28;20524;-79
2022/07/11 00:06:49;;;;;;;3.80;1.70;;;19.80;67.90;;;;;;5086178;28;20460;-78
2022/07/11 00:09:17;;;;;;;4.63;1.97;;;19.80;68.00;;;;;;5086902;28;20500;-78
2022/07/11 00:11:45;;;;;;;4.47;2.07;;;19.80;68.00;;;;;;5091841;28;20541;-78
2022/07/11 00:14:13;;;;;;;4.40;2.30;;;19.80;68.10;;;;;;5089351;28;20473;-78
2022/07/11 00:16:41;;;;;;;4.10;2.27;;;19.80;68.10;;;;;;5070799;28;20516;-78
2022/07/11 00:19:11;;;;;;;4.20;1.90;;;19.80;68.20;;;;;;5089223;28;20501;-78
2022/07/11 00:21:39;;;;;;;4.17;2.07;;;19.80;68.30;;;;;;5085871;28;20551;-79
2022/07/11 00:24:08;;;;;;;5.60;1.97;;;19.80;68.30;;;;;;5071734;28;20454;-80
2022/07/11 00:26:37;;;;;;;3.87;2.00;;;19.80;68.40;;;;;;5091843;28;20530;-80
2022/07/11 00:29:05;;;;;;;4.70;2.40;;;19.80;68.50;;;;;;5089757;28;20563;-78
2022/07/11 00:31:34;;;;;;;4.40;2.10;;;19.80;68.50;;;;;;5068063;28;20465;-78
2022/07/11 00:34:02;;;;;;;6.90;2.33;;;19.80;68.60;;;;;;5089974;28;20497;-78
2022/07/11 00:36:32;;;;;;;4.60;2.10;;;19.80;68.60;;;;;;5081185;28;20459;-78
2022/07/11 00:39:00;;;;;;;4.60;2.03;;;19.80;68.60;;;;;;5090380;28;20491;-79
2022/07/11 00:41:29;;;;;;;4.60;2.37;;;19.70;68.70;;;;;;5071684;28;20450;-79
2022/07/11 00:43:59;;;;;;;5.07;2.10;;;19.70;68.80;;;;;;5069857;28;20448;-81
2022/07/11 00:46:28;;;;;;;4.27;2.23;;;19.70;68.90;;;;;;5086304;28;20476;-80
2022/07/11 00:48:57;;;;;;;4.70;2.40;;;19.70;68.90;;;;;;5079483;28;20484;-80
2022/07/11 00:51:29;;;;;;;4.43;2.37;;;19.70;68.90;;;;;;5087040;28;20459;-78
2022/07/11 00:53:59;;;;;;;4.40;2.10;;;19.70;69.00;;;;;;5088109;28;21073;-80
2022/07/11 00:56:30;;;;;;;5.23;2.27;;;19.70;69.10;;;;;;5088591;28;20530;-80
2022/07/11 00:58:59;;;;;;;6.07;2.50;;;19.70;69.20;;;;;;5072517;28;20563;-79
2022/07/11 01:01:27;;;;;;;4.40;2.33;;;19.60;69.20;;;;;;5089294;28;20504;-80
2022/07/11 01:03:56;;;;;;;4.37;2.00;;;19.60;69.30;;;;;;5089922;28;20468;-78
2022/07/11 01:06:24;;;;;;;4.17;2.50;;;19.60;69.40;;;;;;5074815;28;20456;-79
2022/07/11 01:08:52;;;;;;;4.53;2.20;;;19.60;69.40;;;;;;5072074;28;20495;-77
2022/07/11 01:11:22;;;;;;;4.63;2.30;;;19.60;69.50;;;;;;5063478;28;20467;-79
2022/07/11 01:13:51;;;;;;;5.33;2.60;;;19.60;69.60;;;;;;5087975;28;20465;-79
2022/07/11 01:16:21;;;;;;;4.60;2.53;;;19.60;69.60;;;;;;5087961;28;20477;-78
2022/07/11 01:18:52;;;;;;;4.07;2.20;;;19.60;69.70;;;;;;5090872;28;20492;-77
2022/07/11 01:21:25;;;;;;;4.47;2.20;;;19.50;69.80;;;;;;5076434;28;20542;-80
2022/07/11 01:23:57;;;;;;;5.50;2.47;;;19.50;69.90;;;;;;5071366;28;20507;-78
2022/07/11 01:26:26;;;;;;;4.90;2.43;;;19.50;69.90;;;;;;5083845;28;20911;-79
2022/07/11 01:28:57;;;;;;;4.50;2.40;;;19.50;70.00;;;;;;5089898;28;20474;-79
2022/07/11 01:31:26;;;;;;;4.40;2.50;;;19.50;70.10;;;;;;5072429;28;20507;-78
2022/07/11 01:33:54;;;;;;;4.97;2.20;;;19.50;70.30;;;;;;5066700;28;20459;-78
2022/07/11 01:36:22;;;;;;;4.83;2.60;;;19.50;70.30;;;;;;5075959;28;20562;-78
2022/07/11 01:38:50;;;;;;;4.50;2.50;;;19.40;70.40;;;;;;5068499;28;20483;-79
2022/07/11 01:41:20;;;;;;;4.80;2.97;;;19.40;70.50;;;;;;5070477;28;20494;-78
2022/07/11 01:43:48;;;;;;;4.90;2.40;;;19.40;70.60;;;;;;5084667;28;20467;-78
2022/07/11 01:46:17;;;;;;;4.70;2.93;;;19.40;70.60;;;;;;5082221;28;21052;-78
2022/07/11 01:48:46;;;;;;;4.53;2.23;;;19.40;70.70;;;;;;5068073;28;20490;-79
2022/07/11 01:51:14;;;;;;;8.67;2.70;;;19.40;70.80;;;;;;5057861;28;20487;-78
2022/07/11 01:53:44;;;;;;;4.43;2.30;;;19.40;70.80;;;;;;5068137;28;20502;-78
2022/07/11 01:56:13;;;;;;;4.60;2.37;;;19.40;70.90;;;;;;5085732;28;21275;-79
2022/07/11 01:58:58;;;;;;;4.60;2.50;;;19.40;71.00;;;;;;5063545;28;20479;-78
2022/07/11 02:01:26;;;;;;;4.70;2.70;;;19.40;71.00;;;;;;5085526;28;20487;-79
2022/07/11 02:03:55;;;;;;;5.03;2.40;;;19.40;71.10;;;;;;5065169;28;20464;-77
2022/07/11 02:06:23;;;;;;;4.90;2.77;;;19.40;71.10;;;;;;5065848;28;20506;-78
2022/07/11 02:08:51;;;;;;;4.20;2.30;;;19.40;71.20;;;;;;5070808;28;20574;-78
2022/07/11 02:11:19;;;;;;;5.20;2.43;;;19.40;71.20;;;;;;5066677;28;20468;-77
2022/07/11 02:13:47;;;;;;;4.63;2.50;;;19.40;71.30;;;;;;5064830;28;20486;-78
2022/07/11 02:16:17;;;;;;;5.30;2.90;;;19.40;71.30;;;;;;5067141;28;20480;-78
2022/07/11 02:18:45;;;;;;;5.50;2.27;;;19.40;71.40;;;;;;5072791;28;20480;-78
2022/07/11 02:21:15;;;;;;;5.03;2.83;;;19.40;71.40;;;;;;5065602;28;20461;-78
2022/07/11 02:23:49;;;;;;;4.23;2.30;;;19.40;71.40;;;;;;5071086;28;20512;-77
2022/07/11 02:26:17;;;;;;;4.60;2.87;;;19.40;71.50;;;;;;5085229;28;20531;-78
2022/07/11 02:28:46;;;;;;;5.07;2.87;;;19.30;71.50;;;;;;5089512;28;20586;-78
2022/07/11 02:31:14;;;;;;;5.43;2.83;;;19.30;71.50;;;;;;5086784;28;20518;-78
2022/07/11 02:33:47;;;;;;;5.00;2.90;;;19.30;71.60;;;;;;5075028;28;20484;-79
2022/07/11 02:36:15;;;;;;;4.80;2.70;;;19.30;71.60;;;;;;5089938;28;20471;-77
2022/07/11 02:38:44;;;;;;;4.40;2.40;;;19.30;71.60;;;;;;5093444;28;20483;-80
2022/07/11 02:41:12;;;;;;;4.33;2.30;;;19.30;71.60;;;;;;5071511;28;21282;-77
2022/07/11 02:43:40;;;;;;;4.63;2.33;;;19.30;71.70;;;;;;5094260;28;20476;-79
2022/07/11 02:46:08;;;;;;;5.27;2.50;;;19.30;71.70;;;;;;5079454;28;20482;-79
2022/07/11 02:48:36;;;;;;;4.20;2.53;;;19.30;71.80;;;;;;5091197;28;21083;-78
2022/07/11 02:51:06;;;;;;;4.10;2.30;;;19.30;71.80;;;;;;5072536;28;20582;-77
2022/07/11 02:53:34;;;;;;;5.10;3.40;;;19.30;71.90;;;;;;5092835;28;20456;-79
2022/07/11 02:56:02;;;;;;;4.40;2.50;;;19.30;71.90;;;;;;5094051;28;20463;-79
2022/07/11 02:58:30;;;;;;;4.80;2.80;;;19.30;72.00;;;;;;5093584;28;20499;-79
2022/07/11 03:00:58;;;;;;;5.00;2.80;;;19.30;72.00;;;;;;5074912;28;20461;-78
2022/07/11 03:03:29;;;;;;;5.40;3.37;;;19.30;72.00;;;;;;5078572;28;20967;-79
2022/07/11 03:05:57;;;;;;;4.40;2.63;;;19.30;72.00;;;;;;5093130;28;20443;-79
2022/07/11 03:08:27;;;;;;;4.57;2.60;;;19.30;72.00;;;;;;5093038;28;20472;-79
2022/07/11 03:10:55;;;;;;;5.60;3.03;;;19.30;72.10;;;;;;5089839;28;20464;-77
2022/07/11 03:13:24;;;;;;;5.17;3.10;;;19.30;72.10;;;;;;5092649;28;20451;-78
2022/07/11 03:15:52;;;;;;;4.70;2.73;;;19.30;72.20;;;;;;5091913;28;20514;-79
2022/07/11 03:18:20;;;;;;;4.90;3.17;;;19.20;72.20;;;;;;5090215;28;20497;-78
2022/07/11 03:20:48;;;;;;;6.27;3.30;;;19.30;72.20;;;;;;5077294;28;20469;-79
2022/07/11 03:23:16;;;;;;;5.60;3.30;;;19.30;72.30;;;;;;5074130;28;20489;-79
2022/07/11 03:25:45;;;;;;;5.70;3.00;;;19.20;72.30;;;;;;5091619;28;20451;-79
2022/07/11 03:28:14;;;;;;;4.80;3.00;;;19.20;72.40;;;;;;5074057;28;20509;-79
2022/07/11 03:30:42;;;;;;;4.60;2.63;;;19.20;72.40;;;;;;5070053;28;20604;-78
2022/07/11 03:33:10;;;;;;;4.60;2.80;;;19.20;72.40;;;;;;5087481;28;20553;-79
2022/07/11 03:35:43;;;;;;;5.37;2.93;;;19.20;72.50;;;;;;5089029;28;20482;-79
2022/07/11 03:38:12;;;;;;;5.43;3.37;;;19.20;72.50;;;;;;5088267;28;20572;-79
2022/07/11 03:40:41;;;;;;;4.83;2.80;;;19.20;72.60;;;;;;5086736;28;20467;-80
2022/07/11 03:43:11;;;;;;;6.53;3.00;;;19.20;72.60;;;;;;5092324;28;20461;-79
2022/07/11 03:45:39;;;;;;;5.20;2.87;;;19.20;72.60;;;;;;5073959;28;20561;-79
2022/07/11 03:48:07;;;;;;;4.87;2.97;;;19.10;72.70;;;;;;5074036;28;20484;-78
2022/07/11 03:50:35;;;;;;;4.37;2.63;;;19.20;72.80;;;;;;5091635;28;20474;-79
2022/07/11 03:53:03;;;;;;;4.70;2.30;;;19.20;72.80;;;;;;5090946;28;20833;-79
2022/07/11 03:55:32;;;;;;;4.43;2.63;;;19.20;72.80;;;;;;5092180;28;21153;-78
2022/07/11 03:58:00;;;;;;;4.67;2.87;;;19.20;72.90;;;;;;5091427;28;20491;-79
2022/07/11 04:00:29;;;;;;;4.30;2.57;;;19.20;72.90;;;;;;5084937;28;20474;-78
2022/07/11 04:02:58;;;;;;;4.93;2.80;;;19.20;72.90;;;;;;5075183;28;20548;-79
2022/07/11 04:05:27;;;;;;;5.80;3.17;;;19.20;72.90;;;;;;5090880;28;20587;-79
2022/07/11 04:07:55;;;;;;;5.40;3.27;;;19.20;72.90;;;;;;5080379;28;20517;-80
2022/07/11 04:10:23;;;;;;;5.70;3.20;;;19.20;72.90;;;;;;5091737;28;20483;-80
2022/07/11 04:12:51;;;;;;;6.53;2.80;;;19.20;72.90;;;;;;5088915;28;20513;-80
2022/07/11 04:15:19;;;;;;;4.80;2.83;;;19.20;73.00;;;;;;5075683;28;20496;-78
2022/07/11 04:17:48;;;;;;;4.37;2.63;;;19.20;73.10;;;;;;5092132;28;20538;-78
2022/07/11 04:20:17;;;;;;;5.23;3.30;;;19.20;73.10;;;;;;5090793;28;20467;-80
2022/07/11 04:22:45;;;;;;;6.40;3.30;;;19.20;73.10;;;;;;5077248;28;20464;-80
2022/07/11 04:25:13;;;;;;;5.10;3.33;;;19.20;73.10;;;;;;5091128;28;20549;-79
2022/07/11 04:27:41;;;;;;;5.20;2.90;;;19.10;73.10;;;;;;5072067;28;20484;-80
2022/07/11 04:30:11;;;;;;;7.70;3.53;;;19.10;73.20;;;;;;5071551;28;20461;-78
2022/07/11 04:32:40;;;;;;;5.33;3.10;;;19.10;73.20;;;;;;5073039;28;20460;-79
2022/07/11 04:35:10;;;;;;;5.27;2.70;;;19.10;73.30;;;;;;5074564;28;20589;-78
2022/07/11 04:37:38;;;;;;;4.80;2.80;;;19.10;73.30;;;;;;5087537;28;20488;-79
2022/07/11 04:40:07;;;;;;;6.60;2.90;;;19.10;73.30;;;;;;5079458;28;20473;-78
2022/07/11 04:42:41;;;;;;;7.17;3.10;;;19.10;73.30;;;;;;5088120;28;20543;-78
2022/07/11 04:45:10;;;;;;;5.60;3.47;;;19.10;73.40;;;;;;5072233;28;20557;-78
2022/07/11 04:47:38;;;;;;;5.10;3.00;;;19.10;73.40;;;;;;5092736;28;21126;-78
2022/07/11 04:50:07;;;;;;;7.43;3.50;;;19.10;73.40;;;;;;5077691;28;20552;-77
2022/07/11 04:52:37;;;;;;;5.37;3.10;;;19.10;73.50;;;;;;5092433;28;20489;-77
2022/07/11 04:55:06;;;;;;;5.17;2.60;;;19.10;73.50;;;;;;5083664;28;20466;-78
2022/07/11 04:57:34;;;;;;;4.57;2.90;;;19.10;73.50;;;;;;5090512;28;20491;-78
2022/07/11 05:00:04;;;;;;;5.20;3.10;;;19.20;73.50;;;;;;5075768;28;20483;-77
2022/07/11 05:02:32;;;;;;;5.77;3.40;;;19.20;73.50;;;;;;5093467;28;20508;-77
2022/07/11 05:05:00;;;;;;;4.67;3.03;;;19.20;73.50;;;;;;5077951;28;20451;-78
2022/07/11 05:07:28;;;;;;;5.60;3.23;;;19.20;73.60;;;;;;5076171;28;20550;-78
2022/07/11 05:09:57;;;;;;;5.13;3.43;;;19.20;73.60;;;;;;5074814;28;20554;-78
2022/07/11 05:12:26;;;;;;;5.63;3.50;;;19.20;73.60;;;;;;5090206;28;20504;-78
2022/07/11 05:14:55;;;;;;;5.53;3.00;;;19.20;73.60;;;;;;5073298;28;20455;-77
2022/07/11 05:17:23;;;;;;;5.10;3.07;;;19.20;73.60;;;;;;5090626;28;20564;-78
2022/07/11 05:19:51;;;;;;;5.20;3.60;;;19.20;73.60;;;;;;5090591;28;20474;-78
2022/07/11 05:22:19;;;;;;;5.27;3.00;;;19.30;73.60;;;;;;5092845;28;20483;-78
2022/07/11 05:24:48;;;;;;;6.87;3.63;;;19.30;73.70;;;;;;5093474;28;21211;-78
2022/07/11 05:27:19;;;;;;;5.50;3.47;;;19.30;73.70;;;;;;5067336;28;20571;-78
2022/07/11 05:29:47;;;;;;;5.00;2.87;;;19.30;73.70;;;;;;5072284;28;20545;-78
2022/07/11 05:32:15;;;;;;;5.60;3.03;;;19.30;73.70;;;;;;5090793;28;20486;-78
2022/07/11 05:34:43;;;;;;;5.40;3.50;;;19.30;73.70;;;;;;5075451;28;20468;-78
2022/07/11 05:37:11;;;;;;;7.70;3.53;;;19.30;73.80;;;;;;5077150;28;20509;-78
2022/07/11 05:39:39;;;;;;;6.40;3.50;;;19.30;73.80;;;;;;5092525;28;20450;-77
2022/07/11 05:42:07;;;;;;;5.93;3.77;;;19.40;73.80;;;;;;5064668;28;20647;-77
2022/07/11 05:44:37;;;;;;;8.17;3.57;;;19.40;73.80;;;;;;5084724;28;20447;-78
2022/07/11 05:47:05;;;;;;;4.80;3.07;;;19.40;73.80;;;;;;5065298;28;21056;-78
2022/07/11 05:49:33;;;;;;;5.13;3.17;;;19.40;73.80;;;;;;5056483;28;20462;-78
2022/07/11 05:52:02;;;;;;;6.30;3.57;;;19.40;73.80;;;;;;5077731;28;20454;-78
2022/07/11 05:54:31;;;;;;;5.53;3.33;;;19.40;73.80;;;;;;5083508;28;20550;-78
2022/07/11 05:57:01;;;;;;;5.70;3.47;;;19.40;73.80;;;;;;5085404;28;20540;-78
2022/07/11 05:59:29;;;;;;;5.20;3.53;;;19.50;73.80;;;;;;5085380;28;20580;-78
2022/07/11 06:01:58;;;;;;;7.30;4.10;;;19.50;73.70;;;;;;5082753;28;20475;-78
2022/07/11 06:04:27;;;;;;;6.33;4.03;;;19.50;73.70;;;;;;5084886;28;20944;-78
2022/07/11 06:06:55;;;;;;;6.30;3.83;;;19.50;73.70;;;;;;5092943;28;20519;-78
2022/07/11 06:09:22;;;;;;;6.47;4.80;;;19.50;73.70;;;;;;5091968;28;20457;-77
2022/07/11 06:11:50;;;;;;;8.47;4.83;;;19.50;73.70;;;;;;5086278;28;20537;-74
2022/07/11 06:14:18;;;;;;;6.87;5.10;;;19.50;73.70;;;;;;5067858;28;20464;-77
2022/07/11 06:16:46;;;;;;;7.97;5.27;;;19.50;73.70;;;;;;5082643;28;21023;-76
2022/07/11 06:19:16;;;;;;;6.80;4.27;;;19.50;73.70;;;;;;5082062;28;20484;-76
2022/07/11 06:21:44;;;;;;;11.47;8.03;;;19.50;73.60;;;;;;5083059;28;20459;-77
2022/07/11 06:24:12;;;;;;;25.33;18.90;;;19.50;73.70;;;;;;5065796;28;20820;-76
2022/07/11 06:26:40;;;;;;;12.60;9.43;;;19.60;73.70;;;;;;5082509;28;20514;-77
2022/07/11 06:29:08;;;;;;;8.40;5.97;;;19.60;73.70;;;;;;5082860;28;20464;-77
2022/07/11 06:31:36;;;;;;;7.13;4.33;;;19.70;73.70;;;;;;5084377;28;20913;-77
2022/07/11 06:34:05;;;;;;;8.73;5.20;;;19.70;73.50;;;;;;5064585;28;20471;-77
2022/07/11 06:36:34;;;;;;;7.53;4.50;;;19.80;73.40;;;;;;5084800;28;20544;-76
2022/07/11 06:39:02;;;;;;;7.57;5.23;;;19.80;73.40;;;;;;5084638;28;20491;-77
2022/07/11 06:41:30;;;;;;;6.60;4.97;;;19.80;73.40;;;;;;5068822;28;20472;-77
2022/07/11 06:43:58;;;;;;;8.63;5.17;;;19.90;73.40;;;;;;5065929;28;20546;-77
2022/07/11 06:46:27;;;;;;;9.47;5.70;;;19.90;73.30;;;;;;5085353;28;21109;-77
2022/07/11 06:48:55;;;;;;;9.00;5.80;;;19.90;73.20;;;;;;5083705;28;20565;-77
2022/07/11 06:51:23;;;;;;;9.23;5.37;;;19.90;73.20;;;;;;5084166;28;20480;-77
2022/07/11 06:53:54;;;;;;;7.50;5.27;;;19.90;73.20;;;;;;5085361;28;20505;-77
2022/07/11 06:56:22;;;;;;;9.43;5.00;;;19.90;73.20;;;;;;5085519;28;20531;-77
2022/07/11 06:58:49;;;;;;;7.60;4.93;;;19.90;73.20;;;;;;5068196;28;20494;-76
2022/07/11 07:01:17;;;;;;;7.73;5.80;;;19.90;73.10;;;;;;5084525;28;20475;-77
2022/07/11 07:03:46;;;;;;;8.60;5.60;;;19.90;73.00;;;;;;5085943;28;20449;-77
2022/07/11 07:06:15;;;;;;;10.50;4.83;;;19.90;73.00;;;;;;5084007;28;20477;-76
2022/07/11 07:08:43;;;;;;;7.43;5.77;;;19.90;73.00;;;;;;5085099;28;20504;-77
2022/07/11 07:11:13;;;;;;;7.23;5.00;;;19.90;73.00;;;;;;5085601;28;20456;-77
2022/07/11 07:13:41;;;;;;;8.87;5.50;;;19.90;73.00;;;;;;5084761;28;20488;-77
2022/07/11 07:16:10;;;;;;;8.23;5.13;;;20.00;72.90;;;;;;5071631;28;20507;-76
2022/07/11 07:18:41;;;;;;;8.00;5.40;;;20.00;72.90;;;;;;5090023;28;20552;-77
2022/07/11 07:21:10;;;;;;;10.43;5.40;;;20.00;72.90;;;;;;5087588;28;20456;-76
2022/07/11 07:23:38;;;;;;;9.40;6.13;;;20.00;72.90;;;;;;5088013;28;20491;-77
2022/07/11 07:26:06;;;;;;;9.33;6.30;;;20.00;72.90;;;;;;5070395;28;20468;-77
2022/07/11 07:28:38;;;;;;;7.30;4.90;;;20.10;72.80;;;;;;5089121;28;20993;-77
2022/07/11 07:31:07;;;;;;;8.60;5.20;;;20.10;72.90;;;;;;5087722;28;20472;-77
2022/07/11 07:33:43;;;;;;;12.63;6.40;;;20.10;72.90;;;;;;5087048;28;20457;-77
2022/07/11 07:36:13;;;;;;;8.60;6.10;;;20.20;72.80;;;;;;5085352;28;20548;-77
2022/07/11 07:38:46;;;;;;;9.07;6.90;;;20.20;72.70;;;;;;5070044;28;20906;-76
2022/07/11 07:41:15;;;;;;;7.73;5.80;;;20.20;72.70;;;;;;5088692;28;20456;-77
2022/07/11 07:43:45;;;;;;;9.00;5.73;;;20.20;72.50;;;;;;5089138;28;20536;-76
2022/07/11 07:46:13;;;;;;;12.30;5.77;;;20.20;72.60;;;;;;5088073;28;20831;-76
2022/07/11 07:48:42;;;;;;;8.70;5.53;;;20.20;72.60;;;;;;5087363;28;20520;-76
2022/07/11 07:51:11;;;;;;;9.07;5.67;;;20.20;72.60;;;;;;5084762;28;20454;-77
2022/07/11 07:53:39;;;;;;;8.30;5.80;;;20.20;72.50;;;;;;5067296;28;20550;-76
2022/07/11 07:56:07;;;;;;;6.70;4.70;;;20.20;72.50;;;;;;5087548;28;20458;-77
2022/07/11 07:58:39;;;;;;;13.67;5.83;;;20.20;72.50;;;;;;5088507;28;20579;-76
2022/07/11 08:04:06;;;;;;;8.67;6.63;;;20.20;72.50;;;;;;5024531;28;20506;-76
2022/07/11 08:06:37;;;;;;;10.70;6.43;;;20.20;72.40;;;;;;5073195;28;20462;-76
2022/07/11 08:09:06;;;;;;;9.67;6.40;;;20.20;72.40;;;;;;5084792;28;20481;-76
2022/07/11 08:11:35;;;;;;;11.93;7.23;;;20.20;72.40;;;;;;5069526;28;20468;-76
2022/07/11 08:14:07;;;;;;;12.13;7.60;;;20.20;72.50;;;;;;5088017;28;20466;-76
2022/07/11 08:16:38;;;;;;;9.47;7.10;;;20.20;72.50;;;;;;5086936;28;20468;-76
2022/07/11 08:19:07;;;;;;;9.30;6.83;;;20.20;72.40;;;;;;5068641;28;20484;-76
2022/07/11 08:21:35;;;;;;;10.90;8.00;;;20.30;72.40;;;;;;5085699;28;20458;-77
2022/07/11 08:24:04;;;;;;;11.50;7.13;;;20.30;72.20;;;;;;5069009;28;20452;-76
2022/07/11 08:26:32;;;;;;;11.37;7.67;;;20.40;72.20;;;;;;5087146;28;20470;-77
2022/07/11 08:29:02;;;;;;;12.23;7.67;;;20.40;72.20;;;;;;5069717;28;20478;-76
2022/07/11 08:31:31;;;;;;;10.53;7.07;;;20.40;72.00;;;;;;5077056;28;20541;-76
2022/07/11 08:34:02;;;;;;;12.47;6.43;;;20.50;71.90;;;;;;5068678;28;21067;-76
2022/07/11 08:36:34;;;;;;;16.97;7.20;;;20.50;71.90;;;;;;5087217;28;20502;-77
2022/07/11 08:39:02;;;;;;;8.90;6.40;;;20.50;71.80;;;;;;5082587;28;20569;-76
2022/07/11 08:41:32;;;;;;;10.00;6.57;;;20.60;71.70;;;;;;5085668;28;20465;-77
2022/07/11 08:44:01;;;;;;;11.53;7.40;;;20.60;71.60;;;;;;5085249;28;20452;-77
2022/07/11 08:46:30;;;;;;;8.77;6.43;;;20.50;71.60;;;;;;5068441;28;20462;-76
2022/07/11 08:49:02;;;;;;;9.40;6.80;;;20.60;71.60;;;;;;5074388;28;20473;-77
2022/07/11 08:51:31;;;;;;;11.77;7.60;;;20.60;71.60;;;;;;5084896;28;20493;-77
2022/07/11 08:53:59;;;;;;;9.40;6.10;;;20.60;71.60;;;;;;5086631;28;20501;-77
2022/07/11 08:56:29;;;;;;;8.43;6.37;;;20.70;71.50;;;;;;5067642;28;21017;-76
2022/07/11 08:58:59;;;;;;;8.50;6.03;;;20.80;71.40;;;;;;5086722;28;20478;-77
2022/07/11 09:01:30;;;;;;;9.50;6.00;;;20.80;71.40;;;;;;5086405;28;20470;-77
2022/07/11 09:03:59;;;;;;;11.73;6.67;;;20.80;71.20;;;;;;5085689;28;20547;-77
2022/07/11 09:06:29;;;;;;;8.80;6.47;;;20.80;71.10;;;;;;5084660;28;20528;-76
2022/07/11 09:08:59;;;;;;;8.50;5.97;;;20.80;71.20;;;;;;5086541;28;20594;-76
2022/07/11 09:11:28;;;;;;;9.60;6.10;;;20.80;71.10;;;;;;5085793;28;20510;-77
2022/07/11 09:13:56;;;;;;;11.40;6.63;;;20.80;71.00;;;;;;5068921;28;20481;-75
2022/07/11 09:16:28;;;;;;;11.60;6.10;;;20.80;71.00;;;;;;5086000;28;20828;-76
2022/07/11 09:19:00;;;;;;;8.43;6.17;;;20.80;71.10;;;;;;5066258;28;20484;-77
2022/07/11 09:27:21;;;;;;;9.77;5.03;;;21.00;70.90;;;;;;5005471;28;20570;-76
2022/07/11 09:29:49;;;;;;;7.53;5.23;;;21.00;70.80;;;;;;5061812;28;20468;-76
2022/07/11 09:32:17;;;;;;;7.20;5.07;;;21.10;70.40;;;;;;5078324;28;21114;-76
2022/07/11 09:35:01;;;;;;;8.33;5.03;;;21.00;70.30;;;;;;5086084;28;20457;-76
2022/07/11 09:37:44;;;;;;;7.50;4.70;;;21.00;70.10;;;;;;5084824;28;20496;-75
2022/07/11 09:40:13;;;;;;;6.63;4.57;;;21.00;70.20;;;;;;5082470;28;20501;-76
2022/07/11 09:43:05;;;;;;;7.50;3.97;;;21.00;70.20;;;;;;5086127;28;20546;-77
2022/07/11 09:45:34;;;;;;;6.10;4.30;;;21.10;70.10;;;;;;5083411;28;20477;-74
2022/07/11 09:48:08;;;;;;;8.50;4.73;;;21.20;70.10;;;;;;5064602;28;20477;-77
2022/07/11 09:50:39;;;;;;;6.73;4.20;;;21.20;69.90;;;;;;5085228;28;20452;-77
2022/07/11 09:53:10;;;;;;;6.63;4.13;;;21.30;69.70;;;;;;5083809;28;21184;-76
2022/07/11 09:55:40;;;;;;;5.60;3.50;;;21.30;69.50;;;;;;5084525;28;20456;-77
2022/07/11 09:58:21;;;;;;;6.03;3.53;;;21.30;69.20;;;;;;5084474;28;20890;-75
2022/07/11 10:00:52;;;;;;;5.90;2.80;;;21.20;69.10;;;;;;5084548;28;21296;-76
2022/07/11 10:03:23;;;;;;;4.83;2.90;;;21.20;69.10;;;;;;5067999;28;20546;-77
2022/07/11 10:06:11;;;;;;;5.73;2.90;;;21.10;69.10;;;;;;5068113;28;20509;-76
2022/07/11 10:08:40;;;;;;;5.30;3.20;;;21.10;69.10;;;;;;5086030;28;21220;-74
2022/07/11 10:11:10;;;;;;;6.93;3.63;;;21.20;69.00;;;;;;5084620;28;20450;-75
2022/07/11 10:13:39;;;;;;;5.20;3.00;;;21.20;69.00;;;;;;5071423;28;20469;-76
2022/07/11 10:16:16;;;;;;;7.03;3.60;;;21.20;68.80;;;;;;5070904;28;20560;-77
2022/07/11 10:18:51;;;;;;;6.03;3.10;;;21.20;68.80;;;;;;5088056;28;20564;-77
2022/07/11 10:21:31;;;;;;;6.00;2.97;;;21.30;68.40;;;;;;5088967;28;20575;-75
2022/07/11 10:24:08;;;;;;;5.60;3.33;;;21.20;68.60;;;;;;5075676;28;20547;-76
2022/07/11 10:26:43;;;;;;;5.50;3.67;;;21.20;68.60;;;;;;5075389;28;20449;-78
2022/07/11 10:29:16;;;;;;;6.73;3.67;;;21.30;68.50;;;;;;5068796;28;20489;-77
2022/07/11 10:32:04;;;;;;;7.33;3.30;;;21.20;68.40;;;;;;5088200;28;20473;-78
2022/07/11 10:34:40;;;;;;;5.30;3.40;;;21.20;68.50;;;;;;5087585;28;20464;-77
2022/07/11 10:37:10;;;;;;;5.67;3.50;;;21.20;68.60;;;;;;5089128;28;21020;-76
2022/07/11 10:39:46;;;;;;;8.20;4.10;;;21.30;68.60;;;;;;5068882;28;20489;-76
2022/07/11 10:42:21;;;;;;;5.67;3.70;;;21.30;68.50;;;;;;5074435;28;20458;-76
2022/07/11 10:44:51;;;;;;;5.77;3.80;;;21.30;68.60;;;;;;5087116;28;21233;-76
2022/07/11 10:47:40;;;;;;;5.80;3.23;;;21.30;68.60;;;;;;5086346;28;20522;-76
2022/07/11 10:50:32;;;;;;;7.10;3.37;;;21.30;68.60;;;;;;5093301;28;20453;-75
2022/07/11 10:53:08;;;;;;;6.17;3.37;;;21.40;68.70;;;;;;5075960;28;20554;-77
2022/07/11 10:55:44;;;;;;;7.90;3.80;;;21.40;68.60;;;;;;5092048;28;21049;-77
2022/07/11 10:58:20;;;;;;;7.23;3.80;;;21.50;68.40;;;;;;5092358;28;20473;-77
2022/07/11 11:01:02;;;;;;;6.90;3.60;;;21.50;68.40;;;;;;5090048;28;20550;-78
2022/07/11 11:03:30;;;;;;;6.10;3.63;;;21.50;68.40;;;;;;5073920;28;21037;-77
2022/07/11 11:05:59;;;;;;;5.17;3.40;;;21.50;68.30;;;;;;5091409;28;20463;-78
2022/07/11 11:08:47;;;;;;;7.10;4.03;;;21.50;68.30;;;;;;5073840;28;21041;-78
2022/07/11 11:11:38;;;;;;;4.70;3.03;;;21.50;68.20;;;;;;5071965;28;20450;-78
2022/07/11 11:14:25;;;;;;;6.70;3.77;;;21.50;68.30;;;;;;5088575;28;20462;-76
2022/07/11 11:16:54;;;;;;;5.60;3.00;;;21.50;68.30;;;;;;5087384;28;20912;-76
2022/07/11 11:19:51;;;;;;;6.10;3.70;;;21.50;68.30;;;;;;5088384;28;20485;-77
2022/07/11 11:22:21;;;;;;;5.93;3.23;;;21.60;68.20;;;;;;5088816;28;20449;-77
2022/07/11 11:24:52;;;;;;;5.00;3.03;;;21.60;68.10;;;;;;5089827;28;20454;-78
2022/07/11 11:28:04;;;;;;;6.43;3.33;;;21.70;68.00;;;;;;5087382;28;20531;-76
2022/07/11 11:30:32;;;;;;;5.80;3.20;;;21.70;67.90;;;;;;5089405;28;20573;-77
2022/07/11 11:33:00;;;;;;;7.37;3.60;;;21.80;67.80;;;;;;5089776;28;20460;-77
2022/07/11 11:35:28;;;;;;;5.10;3.10;;;21.80;67.50;;;;;;5090395;28;21001;-76
2022/07/11 11:38:00;;;;;;;5.63;3.23;;;21.80;67.60;;;;;;5091553;28;20477;-76
2022/07/11 11:40:28;;;;;;;5.30;2.93;;;21.80;67.70;;;;;;5091000;28;20483;-76
2022/07/11 11:42:58;;;;;;;6.13;3.20;;;21.90;67.80;;;;;;5088453;28;20454;-77
2022/07/11 11:45:26;;;;;;;6.70;3.57;;;22.00;67.70;;;;;;5072819;28;20551;-78
2022/07/11 11:47:54;;;;;;;6.67;3.10;;;22.10;67.50;;;;;;5073379;28;20549;-77
2022/07/11 11:50:22;;;;;;;6.93;3.13;;;22.20;67.40;;;;;;5091833;28;20463;-77
2022/07/11 11:52:50;;;;;;;5.67;2.77;;;22.30;67.30;;;;;;5091667;28;20457;-77
2022/07/11 11:55:19;;;;;;;5.50;3.07;;;22.40;67.10;;;;;;5072149;28;20480;-77
2022/07/11 11:57:47;;;;;;;7.87;3.80;;;22.40;66.90;;;;;;5089972;28;20480;-77
2022/07/11 12:00:26;;;;;;;6.07;3.10;;;22.40;66.80;;;;;;5087310;28;20509;-77
2022/07/11 12:03:14;;;;;;;5.43;3.33;;;22.40;66.70;;;;;;5088253;28;20460;-77
2022/07/11 12:05:54;;;;;;;5.50;3.37;;;22.40;66.70;;;;;;5091134;28;20444;-77
2022/07/11 12:08:27;;;;;;;7.30;3.07;;;22.40;66.60;;;;;;5072514;28;20543;-77
2022/07/11 12:10:55;;;;;;;5.00;2.80;;;22.40;66.50;;;;;;5074513;28;21271;-76
2022/07/11 12:13:23;;;;;;;5.60;3.33;;;22.40;66.60;;;;;;5073144;28;20685;-78
2022/07/11 12:18:39;;;;;;;7.23;3.60;;;22.40;66.60;;;;;;5071816;28;20472;-78
2022/07/11 12:21:11;;;;;;;4.80;2.70;;;22.40;66.60;;;;;;5072854;28;20540;-77
2022/07/11 12:23:39;;;;;;;8.60;2.50;;;22.40;66.30;;;;;;5090404;28;20481;-77
2022/07/11 12:26:08;;;;;;;5.63;3.00;;;22.40;66.20;;;;;;5072895;28;20524;-76
2022/07/11 12:28:36;;;;;;;4.40;2.50;;;22.40;66.30;;;;;;5089936;28;20565;-75
2022/07/11 12:31:06;;;;;;;5.40;2.70;;;22.50;66.40;;;;;;5089908;28;20481;-77
2022/07/11 12:33:34;;;;;;;4.73;2.60;;;22.50;66.40;;;;;;5090561;28;20457;-75
2022/07/11 12:36:04;;;;;;;6.07;3.03;;;22.60;66.30;;;;;;5073199;28;20483;-76
2022/07/11 12:38:48;;;;;;;6.73;3.10;;;22.60;66.00;;;;;;5090421;28;20473;-76
2022/07/11 12:41:16;;;;;;;5.30;3.30;;;22.60;65.80;;;;;;5089676;28;20538;-76
2022/07/11 12:46:34;;;;;;;6.00;3.00;;;22.40;66.00;;;;;;5087935;28;20479;-78
2022/07/11 12:49:04;;;;;;;6.03;2.93;;;22.40;66.10;;;;;;5092033;28;20552;-77
2022/07/11 12:51:36;;;;;;;6.27;2.70;;;22.40;66.20;;;;;;5073350;28;20517;-77
2022/07/11 12:54:06;;;;;;;6.40;2.90;;;22.40;66.20;;;;;;5088688;28;20477;-77
2022/07/11 12:56:35;;;;;;;5.30;3.07;;;22.40;66.20;;;;;;5087912;28;20453;-76
2022/07/11 12:59:05;;;;;;;6.70;3.00;;;22.50;66.30;;;;;;5091407;28;20899;-76
2022/07/11 13:01:55;;;;;;;5.40;3.27;;;22.50;66.30;;;;;;5090290;28;20529;-75
2022/07/11 13:04:35;;;;;;;5.80;3.00;;;22.60;66.20;;;;;;5090707;28;20448;-77
2022/07/11 13:10:15;;;;;;;6.10;2.87;;;22.50;66.20;;;;;;5089137;28;20571;-77
2022/07/11 13:12:45;;;;;;;6.37;2.80;;;22.50;66.30;;;;;;5072717;28;20575;-75
2022/07/11 13:15:17;;;;;;;6.20;3.13;;;22.50;66.30;;;;;;5090030;28;20528;-77
2022/07/11 13:17:49;;;;;;;5.50;2.70;;;22.50;66.40;;;;;;5090278;28;20480;-76
2022/07/11 13:20:20;;;;;;;4.80;2.90;;;22.60;66.30;;;;;;5090202;28;21291;-76